createdAt,value
2017-06-22T15:25:17.282Z,3.10
2017-06-22T15:27:46.832Z,2.83
2017-06-22T15:30:16.402Z,5.03
2017-06-22T15:32:45.918Z,5.40
2017-06-22T15:35:15.492Z,5.10
2017-06-22T15:37:45.015Z,5.13
2017-06-22T15:40:14.552Z,13.13
2017-06-22T15:42:44.107Z,8.93
2017-06-22T15:45:13.634Z,25.37
2017-06-22T15:47:43.181Z,25.57
2017-06-22T15:50:12.728Z,14.50
2017-06-22T15:52:42.262Z,11.20
2017-06-22T15:55:12.279Z,9.10
2017-06-22T15:57:42.580Z,8.70
2017-06-22T16:00:12.117Z,7.40
2017-06-22T16:02:41.615Z,6.80
2017-06-22T16:05:11.151Z,7.67
2017-06-22T16:07:40.692Z,7.00
2017-06-22T16:10:10.218Z,7.20
2017-06-22T16:12:40.474Z,7.33
2017-06-22T16:15:10.020Z,7.40
2017-06-22T16:17:39.539Z,46.27
2017-06-22T16:20:09.098Z,34.83
2017-06-22T16:22:38.648Z,25.27
2017-06-22T16:25:08.303Z,17.87
2017-06-22T16:27:38.500Z,14.73
2017-06-22T16:30:08.024Z,13.30
2017-06-22T16:32:37.562Z,10.07
2017-06-22T16:35:07.060Z,9.33
2017-06-22T16:37:36.574Z,10.37
2017-06-22T16:40:06.298Z,7.20
2017-06-22T16:42:35.820Z,9.50
2017-06-22T16:45:05.316Z,8.40
2017-06-22T16:47:34.824Z,7.47
2017-06-22T16:50:04.326Z,6.67
2017-06-22T16:52:33.812Z,6.47
2017-06-22T16:55:03.310Z,7.17
2017-06-22T16:57:32.944Z,7.40
2017-06-22T17:00:02.489Z,6.87
2017-06-22T17:02:32.008Z,5.87
2017-06-22T17:05:01.591Z,5.73
2017-06-22T17:07:31.149Z,6.30
2017-06-22T17:10:00.684Z,8.00
2017-06-22T17:12:30.227Z,13.07
2017-06-22T17:14:59.731Z,10.97
2017-06-22T17:17:29.277Z,10.10
2017-06-22T17:19:58.764Z,9.33
2017-06-22T17:22:28.300Z,8.77
2017-06-22T17:24:57.829Z,8.60
2017-06-22T17:27:27.369Z,8.40
2017-06-22T17:29:56.899Z,8.93
2017-06-22T17:32:26.423Z,8.90
2017-06-22T17:34:55.999Z,9.70
2017-06-22T17:37:25.544Z,10.90
2017-06-22T17:39:55.049Z,15.07
2017-06-22T17:42:24.613Z,14.77
2017-06-22T17:44:54.143Z,20.70
2017-06-22T17:47:23.650Z,18.03
2017-06-22T17:49:53.213Z,17.13
2017-06-22T17:52:22.727Z,12.30
2017-06-22T17:54:52.260Z,13.30
2017-06-22T17:57:21.789Z,17.37
2017-06-22T17:59:51.309Z,17.50
2017-06-22T18:02:21.009Z,16.83
2017-06-22T18:04:50.552Z,15.43
2017-06-22T18:07:20.065Z,12.10
2017-06-22T18:09:49.608Z,10.77
2017-06-22T18:12:19.151Z,10.50
2017-06-22T18:14:48.676Z,9.93
2017-06-22T18:17:18.239Z,9.13
2017-06-22T18:19:47.764Z,9.43
2017-06-22T18:22:17.298Z,8.90
2017-06-22T18:24:46.837Z,7.70
2017-06-22T18:27:16.358Z,9.17
2017-06-22T18:29:45.978Z,8.83
2017-06-22T18:32:16.270Z,7.50
2017-06-22T18:34:45.905Z,7.60
2017-06-22T18:37:15.387Z,6.70
2017-06-22T18:39:44.976Z,5.33
2017-06-22T18:42:14.504Z,5.07
2017-06-22T18:44:44.012Z,6.47
2017-06-22T18:47:13.533Z,5.67
2017-06-22T18:49:43.059Z,4.83
2017-06-22T18:52:12.595Z,13.80
2017-06-22T18:54:42.161Z,10.77
2017-06-22T18:57:11.668Z,6.90
2017-06-22T18:59:41.747Z,5.13
2017-06-22T19:02:11.272Z,5.07
2017-06-22T19:04:40.769Z,5.30
2017-06-22T19:07:10.639Z,2.93
2017-06-22T19:09:40.120Z,3.70
2017-06-22T19:12:09.656Z,4.53
2017-06-22T19:14:39.201Z,4.60
2017-06-22T19:17:08.740Z,5.30
2017-06-22T19:19:38.294Z,4.30
2017-06-22T19:22:08.450Z,5.40
2017-06-22T19:24:37.969Z,4.63
2017-06-22T19:27:07.492Z,5.90
2017-06-22T19:29:37.011Z,7.03
2017-06-22T19:32:06.496Z,5.80
2017-06-22T19:34:36.165Z,6.30
2017-06-22T19:37:05.664Z,6.40
2017-06-22T19:39:35.218Z,7.30
2017-06-22T19:42:04.703Z,7.83
